createdAt,value
2019-02-21T00:02:06.124Z,99.90
2019-02-21T00:04:35.481Z,99.90
2019-02-21T00:07:03.945Z,99.90
2019-02-21T00:09:32.421Z,99.90
2019-02-21T00:12:00.929Z,99.90
2019-02-21T00:14:29.383Z,99.90
2019-02-21T00:16:57.767Z,99.90
2019-02-21T00:19:26.172Z,99.90
2019-02-21T00:21:54.763Z,99.90
2019-02-21T00:24:23.243Z,99.90
2019-02-21T00:26:53.039Z,99.90
2019-02-21T00:29:23.224Z,99.90
2019-02-21T00:31:51.901Z,99.90
2019-02-21T00:34:20.286Z,99.90
2019-02-21T00:36:48.682Z,99.90
2019-02-21T00:39:17.073Z,99.90
2019-02-21T00:41:45.483Z,99.90
2019-02-21T00:44:13.942Z,99.90
2019-02-21T00:46:42.423Z,99.90
2019-02-21T00:49:10.907Z,99.90
2019-02-21T00:51:39.505Z,99.90
2019-02-21T00:54:07.882Z,99.90
2019-02-21T00:56:36.418Z,99.90
2019-02-21T00:59:06.691Z,99.90
2019-02-21T01:01:35.480Z,99.90
2019-02-21T01:04:03.875Z,99.90
2019-02-21T01:06:32.462Z,99.90
2019-02-21T01:09:02.329Z,99.90
2019-02-21T01:11:30.927Z,99.90
2019-02-21T01:14:00.619Z,99.90
2019-02-21T01:16:29.004Z,99.90
2019-02-21T01:18:57.586Z,99.90
2019-02-21T01:21:26.202Z,99.90
2019-02-21T01:23:56.396Z,99.90
2019-02-21T01:26:24.982Z,99.90
2019-02-21T01:28:53.759Z,99.90
2019-02-21T01:31:22.357Z,99.90
2019-02-21T01:33:50.870Z,99.90
2019-02-21T01:36:19.362Z,99.90
2019-02-21T01:38:47.854Z,99.90
2019-02-21T01:41:16.482Z,99.90
2019-02-21T01:43:44.898Z,99.90
2019-02-21T01:46:13.518Z,99.90
2019-02-21T01:48:41.940Z,99.90
2019-02-21T01:51:10.459Z,99.90
2019-02-21T01:53:38.946Z,99.90
2019-02-21T01:56:07.305Z,99.90
2019-02-21T01:58:37.509Z,99.90
2019-02-21T02:01:08.873Z,99.90
2019-02-21T02:03:36.307Z,99.90
2019-02-21T02:06:04.689Z,99.90
2019-02-21T02:08:34.343Z,99.90
2019-02-21T02:11:02.869Z,99.90
2019-02-21T02:13:31.353Z,99.90
2019-02-21T02:15:59.849Z,99.90
2019-02-21T02:18:28.346Z,99.90
2019-02-21T02:20:56.927Z,99.90
2019-02-21T02:23:25.419Z,99.90
2019-02-21T02:25:53.905Z,99.90
2019-02-21T02:28:22.315Z,99.90
2019-02-21T02:30:52.246Z,99.90
2019-02-21T02:33:20.852Z,99.90
2019-02-21T02:35:49.343Z,99.90
2019-02-21T02:38:18.026Z,99.90
2019-02-21T02:40:46.438Z,99.90
2019-02-21T02:43:14.925Z,99.90
2019-02-21T02:45:45.135Z,99.90
2019-02-21T02:48:13.517Z,99.90
2019-02-21T02:50:41.909Z,99.90
2019-02-21T02:53:10.405Z,99.90
2019-02-21T02:55:40.629Z,99.90
2019-02-21T02:58:09.036Z,99.90
2019-02-21T03:00:38.424Z,99.90
2019-02-21T03:03:08.245Z,99.90
2019-02-21T03:05:36.820Z,99.90
2019-02-21T03:08:05.218Z,99.90
2019-02-21T03:10:33.715Z,99.90
2019-02-21T03:13:02.186Z,99.90
2019-02-21T03:15:30.600Z,99.90
2019-02-21T03:17:59.179Z,99.90
2019-02-21T03:20:27.659Z,99.90
2019-02-21T03:22:56.732Z,99.90
2019-02-21T03:25:25.832Z,99.90
2019-02-21T03:27:56.055Z,99.90
2019-02-21T03:30:24.434Z,99.90
2019-02-21T03:32:53.111Z,99.90
2019-02-21T03:35:22.619Z,99.90
2019-02-21T03:37:51.026Z,99.90
2019-02-21T03:40:19.533Z,99.90
2019-02-21T03:42:54.074Z,99.90
2019-02-21T03:45:22.478Z,99.90
2019-02-21T03:47:50.854Z,99.90
2019-02-21T03:50:20.135Z,99.90
2019-02-21T03:52:50.046Z,99.90
2019-02-21T03:55:18.437Z,99.90
2019-02-21T03:57:46.943Z,99.90
2019-02-21T04:00:24.905Z,99.90
2019-02-21T04:02:58.454Z,99.90
2019-02-21T04:05:27.136Z,99.90
2019-02-21T04:07:55.515Z,99.90
2019-02-21T04:10:24.013Z,99.90
2019-02-21T04:12:52.562Z,99.90
2019-02-21T04:15:21.063Z,99.90
2019-02-21T04:17:49.641Z,99.90
2019-02-21T04:20:18.156Z,99.90
2019-02-21T04:22:46.910Z,99.90
2019-02-21T04:25:15.299Z,99.90
2019-02-21T04:27:43.819Z,99.90
2019-02-21T04:30:12.211Z,99.90
2019-02-21T04:32:40.718Z,99.90
2019-02-21T04:35:09.220Z,99.90
2019-02-21T04:37:39.405Z,99.90
2019-02-21T04:40:08.515Z,99.90
2019-02-21T04:42:36.963Z,99.90
2019-02-21T04:45:05.720Z,99.90
2019-02-21T04:47:34.316Z,99.90
2019-02-21T04:50:02.912Z,99.90
2019-02-21T04:52:31.334Z,99.90
2019-02-21T04:54:59.722Z,99.90
2019-02-21T04:57:28.532Z,99.90
2019-02-21T04:59:56.906Z,99.90
2019-02-21T05:02:29.042Z,99.90
2019-02-21T05:04:55.956Z,99.90
2019-02-21T05:07:24.851Z,99.90
2019-02-21T05:09:58.216Z,99.90
2019-02-21T05:12:25.394Z,99.90
2019-02-21T05:14:55.590Z,99.90
2019-02-21T05:17:23.972Z,99.90
2019-02-21T05:19:52.448Z,99.90
2019-02-21T05:22:20.865Z,99.90
2019-02-21T05:24:49.368Z,99.90
2019-02-21T05:27:31.159Z,99.90
2019-02-21T05:29:59.830Z,99.90
2019-02-21T05:33:03.148Z,99.90
2019-02-21T05:35:42.834Z,99.90
2019-02-21T05:38:31.056Z,99.90
2019-02-21T05:41:18.106Z,99.90
2019-02-21T05:44:05.176Z,99.90
2019-02-21T05:47:03.729Z,99.90
2019-02-21T05:49:51.732Z,99.90
2019-02-21T05:52:37.868Z,99.90
2019-02-21T05:55:32.167Z,99.90
2019-02-21T05:58:18.979Z,99.90
2019-02-21T06:00:53.457Z,99.90
2019-02-21T06:03:38.414Z,99.90
2019-02-21T06:06:17.375Z,99.90
2019-02-21T06:09:01.382Z,99.90
2019-02-21T06:11:40.531Z,99.90
2019-02-21T06:14:34.688Z,99.90
2019-02-21T06:17:19.064Z,99.90
2019-02-21T06:20:05.609Z,99.90
2019-02-21T06:22:52.562Z,99.90
2019-02-21T06:25:50.868Z,99.90
2019-02-21T06:28:30.217Z,99.90
2019-02-21T06:31:03.689Z,99.90
2019-02-21T06:33:32.092Z,99.90
2019-02-21T06:36:00.545Z,99.90
2019-02-21T06:38:29.569Z,99.90
2019-02-21T06:40:58.164Z,99.90
2019-02-21T06:43:26.655Z,99.90
2019-02-21T06:45:57.910Z,99.90
2019-02-21T06:48:25.648Z,99.90
2019-02-21T06:50:54.163Z,99.90
2019-02-21T06:53:24.314Z,99.90
2019-02-21T06:55:53.014Z,99.90
2019-02-21T06:58:21.408Z,99.90
2019-02-21T07:00:49.915Z,99.90
2019-02-21T07:03:18.508Z,99.90
2019-02-21T07:05:47.355Z,99.90
2019-02-21T07:08:15.940Z,99.90
2019-02-21T07:10:46.149Z,99.90
2019-02-21T07:13:25.967Z,99.90
2019-02-21T07:15:46.889Z,99.90
2019-02-21T07:18:15.591Z,99.90
2019-02-21T07:20:45.727Z,99.90
2019-02-21T07:23:15.343Z,99.90
2019-02-21T07:25:50.599Z,99.90
2019-02-21T07:28:21.023Z,99.90
2019-02-21T07:30:50.336Z,99.90
2019-02-21T07:33:28.383Z,99.90
2019-02-21T07:35:50.235Z,99.90
2019-02-21T07:38:18.650Z,99.90
2019-02-21T07:40:48.955Z,99.90
2019-02-21T07:43:17.502Z,99.90
2019-02-21T07:45:45.894Z,99.90
2019-02-21T07:48:14.379Z,99.90
2019-02-21T07:50:42.986Z,99.90
2019-02-21T07:53:11.383Z,99.90
2019-02-21T07:55:40.183Z,99.90
2019-02-21T07:58:08.662Z,99.90
2019-02-21T08:00:37.064Z,99.90
2019-02-21T08:03:05.709Z,99.90
2019-02-21T08:05:34.218Z,99.90
2019-02-21T08:08:03.013Z,99.90
2019-02-21T08:10:33.866Z,99.90
2019-02-21T08:13:02.197Z,99.90
2019-02-21T08:15:30.590Z,99.90
2019-02-21T08:17:58.976Z,99.90
2019-02-21T08:20:34.553Z,99.90
2019-02-21T08:22:57.860Z,99.90
2019-02-21T08:25:26.369Z,99.90
2019-02-21T08:27:54.980Z,99.90
2019-02-21T08:30:23.486Z,99.90
2019-02-21T08:33:19.443Z,99.90
2019-02-21T08:35:48.237Z,99.90
2019-02-21T08:38:16.653Z,99.90
2019-02-21T08:40:46.858Z,99.90
2019-02-21T08:43:15.401Z,99.90
2019-02-21T08:45:43.803Z,99.90
2019-02-21T08:48:13.519Z,99.90
2019-02-21T08:50:42.284Z,99.90
2019-02-21T08:53:13.027Z,99.90
2019-02-21T08:55:42.018Z,99.90
2019-02-21T08:58:10.506Z,99.90
2019-02-21T09:00:41.110Z,99.90
2019-02-21T09:03:09.705Z,99.90
2019-02-21T09:05:38.642Z,99.90
2019-02-21T09:08:07.319Z,99.90
2019-02-21T09:10:35.911Z,99.90
2019-02-21T09:13:04.399Z,99.90
2019-02-21T09:15:32.773Z,99.90
2019-02-21T09:18:01.179Z,99.90
2019-02-21T09:20:31.355Z,99.90
2019-02-21T09:22:59.800Z,99.90
2019-02-21T09:25:28.203Z,99.90
2019-02-21T09:27:59.834Z,99.90
2019-02-21T09:30:28.535Z,99.90
2019-02-21T09:32:56.928Z,99.90
2019-02-21T09:35:25.419Z,99.90
2019-02-21T09:37:54.411Z,99.90
2019-02-21T09:40:23.010Z,99.90
2019-02-21T09:42:51.473Z,99.90
2019-02-21T09:45:21.656Z,99.90
2019-02-21T09:47:50.038Z,99.90
2019-02-21T09:50:18.443Z,99.90
2019-02-21T09:52:47.207Z,99.90
2019-02-21T09:55:16.261Z,99.90
2019-02-21T09:57:44.951Z,99.90
2019-02-21T10:00:18.506Z,99.90
2019-02-21T10:02:47.045Z,99.90
2019-02-21T10:05:15.522Z,99.90
2019-02-21T10:07:44.028Z,99.90
2019-02-21T10:10:15.279Z,99.90
2019-02-21T10:12:43.816Z,99.90
2019-02-21T10:15:12.827Z,99.90
2019-02-21T10:17:41.271Z,99.90
2019-02-21T10:20:13.195Z,99.90
2019-02-21T10:22:43.534Z,99.90
2019-02-21T10:25:23.636Z,99.90
2019-02-21T10:27:52.216Z,99.90
2019-02-21T10:30:21.317Z,99.90
2019-02-21T10:32:50.151Z,99.90
2019-02-21T10:35:18.557Z,99.90
2019-02-21T10:37:48.771Z,99.90
2019-02-21T10:40:17.377Z,99.90
2019-02-21T10:42:45.912Z,99.90
2019-02-21T10:45:16.462Z,99.90
2019-02-21T10:47:46.122Z,99.90
2019-02-21T10:50:16.994Z,99.90
2019-02-21T10:52:46.721Z,99.90
2019-02-21T10:55:17.032Z,99.90
2019-02-21T10:57:45.897Z,99.90
2019-02-21T11:00:25.688Z,99.90
2019-02-21T11:02:54.369Z,99.90
2019-02-21T11:05:22.949Z,99.90
2019-02-21T11:07:54.873Z,99.90
2019-02-21T11:10:26.198Z,99.90
2019-02-21T11:12:56.477Z,99.90
2019-02-21T11:15:25.151Z,99.90
2019-02-21T11:17:55.492Z,99.90
2019-02-21T11:20:24.136Z,99.40
2019-02-21T11:22:52.764Z,99.00
2019-02-21T11:25:22.976Z,99.80
2019-02-21T11:27:53.203Z,99.40
2019-02-21T11:30:21.700Z,99.50
2019-02-21T11:32:50.251Z,97.80
2019-02-21T11:35:19.091Z,97.90
2019-02-21T11:37:47.893Z,98.70
2019-02-21T11:40:17.606Z,98.20
2019-02-21T11:42:47.855Z,98.60
2019-02-21T11:45:17.602Z,97.90
2019-02-21T11:47:46.294Z,97.20
2019-02-21T11:50:15.559Z,97.30
2019-02-21T11:52:46.141Z,98.00
2019-02-21T11:55:20.179Z,95.80
2019-02-21T11:57:48.795Z,95.90
2019-02-21T12:00:23.188Z,95.40
2019-02-21T12:02:51.745Z,95.30
2019-02-21T12:05:30.509Z,94.60
2019-02-21T12:07:55.022Z,94.20
2019-02-21T12:10:23.738Z,93.30
2019-02-21T12:12:52.406Z,93.80
2019-02-21T12:15:21.087Z,94.00
2019-02-21T12:17:49.733Z,92.70
2019-02-21T12:20:18.320Z,91.60
2019-02-21T12:22:47.072Z,91.60
2019-02-21T12:25:17.459Z,92.90
2019-02-21T12:27:46.006Z,92.10
2019-02-21T12:30:16.846Z,90.90
2019-02-21T12:32:45.520Z,92.00
2019-02-21T12:35:14.525Z,92.40
2019-02-21T12:37:43.471Z,90.70
2019-02-21T12:40:16.423Z,89.80
2019-02-21T12:42:44.979Z,88.80
2019-02-21T12:45:16.291Z,89.60
2019-02-21T12:47:50.614Z,87.50
2019-02-21T12:50:16.191Z,88.90
2019-02-21T12:52:44.745Z,87.60
2019-02-21T12:55:26.447Z,86.60
2019-02-21T12:57:44.838Z,86.90
2019-02-21T13:00:16.241Z,87.40
2019-02-21T13:02:44.726Z,85.50
2019-02-21T13:05:13.399Z,82.70
2019-02-21T13:07:42.598Z,85.80
2019-02-21T13:10:13.738Z,83.30
2019-02-21T13:12:42.115Z,82.00
2019-02-21T13:15:13.485Z,82.10
2019-02-21T13:17:42.303Z,83.40
2019-02-21T13:20:13.064Z,83.30
2019-02-21T13:22:41.755Z,82.50
2019-02-21T13:25:11.043Z,79.30
2019-02-21T13:27:39.433Z,77.70
2019-02-21T13:30:11.628Z,78.90
2019-02-21T13:32:41.126Z,77.20
2019-02-21T13:35:10.153Z,76.60
2019-02-21T13:37:38.648Z,77.00
2019-02-21T13:40:09.144Z,78.30
2019-02-21T13:42:37.727Z,79.50
2019-02-21T13:45:06.491Z,79.70
2019-02-21T13:47:39.128Z,78.50
2019-02-21T13:50:11.030Z,78.60
2019-02-21T13:52:39.626Z,77.40
2019-02-21T13:55:09.860Z,76.90
2019-02-21T13:57:38.442Z,76.40
2019-02-21T14:00:11.006Z,77.00
2019-02-21T14:02:39.758Z,77.00
2019-02-21T14:05:08.495Z,77.90
2019-02-21T14:07:37.495Z,78.10
2019-02-21T14:10:06.461Z,79.10
2019-02-21T14:12:34.834Z,79.10
2019-02-21T14:15:03.894Z,78.70
2019-02-21T14:17:33.596Z,79.70
2019-02-21T14:20:02.133Z,80.60
2019-02-21T14:22:30.823Z,82.40
2019-02-21T14:25:01.007Z,83.00
2019-02-21T14:27:31.911Z,83.30
2019-02-21T14:30:01.659Z,84.10
2019-02-21T14:32:30.063Z,84.60
2019-02-21T14:34:58.856Z,82.50
2019-02-21T14:37:27.344Z,83.20
2019-02-21T14:40:02.924Z,83.40
2019-02-21T14:42:31.323Z,83.60
2019-02-21T14:44:59.817Z,83.30
2019-02-21T14:47:28.375Z,84.30
2019-02-21T14:49:56.784Z,82.40
2019-02-21T14:52:27.118Z,82.70
2019-02-21T14:54:57.296Z,81.90
2019-02-21T14:57:25.761Z,82.10
2019-02-21T14:59:54.219Z,82.10
2019-02-21T15:02:22.717Z,83.30
2019-02-21T15:04:51.127Z,82.10
2019-02-21T15:07:19.715Z,83.10
2019-02-21T15:09:52.601Z,83.20
2019-02-21T15:12:23.856Z,83.60
2019-02-21T15:14:52.744Z,84.20
2019-02-21T15:17:22.904Z,84.60
2019-02-21T15:19:53.128Z,85.70
2019-02-21T15:22:21.575Z,85.90
2019-02-21T15:24:52.609Z,87.30
2019-02-21T15:27:23.418Z,87.70
2019-02-21T15:29:51.480Z,87.20
2019-02-21T15:32:20.035Z,87.10
2019-02-21T15:34:48.616Z,87.30
2019-02-21T15:37:17.087Z,87.50
2019-02-21T15:39:50.932Z,87.30
2019-02-21T15:42:19.346Z,86.70
2019-02-21T15:44:47.749Z,87.90
2019-02-21T15:47:16.175Z,88.90
2019-02-21T15:49:46.351Z,88.60
2019-02-21T15:52:22.214Z,89.60
2019-02-21T15:54:46.706Z,87.90
2019-02-21T15:57:15.310Z,88.00
2019-02-21T15:59:43.698Z,88.30
2019-02-21T16:02:12.670Z,89.50
2019-02-21T16:04:41.185Z,90.00
2019-02-21T16:07:09.595Z,90.30
2019-02-21T16:09:38.295Z,91.30
2019-02-21T16:12:07.282Z,91.10
2019-02-21T16:14:37.735Z,91.20
2019-02-21T16:17:08.084Z,91.50
2019-02-21T16:19:36.590Z,92.10
2019-02-21T16:22:05.172Z,92.50
2019-02-21T16:24:33.615Z,93.20
2019-02-21T16:27:02.097Z,93.60
2019-02-21T16:29:30.888Z,94.10
2019-02-21T16:31:59.419Z,94.60
2019-02-21T16:34:27.897Z,95.20
2019-02-21T16:37:02.423Z,95.60
2019-02-21T16:39:26.558Z,95.50
2019-02-21T16:41:55.049Z,95.80
2019-02-21T16:44:25.235Z,96.30
2019-02-21T16:46:53.597Z,96.70
2019-02-21T16:49:21.982Z,97.10
2019-02-21T16:51:52.215Z,97.30
2019-02-21T16:54:21.503Z,97.60
2019-02-21T16:56:50.074Z,98.00
2019-02-21T16:59:18.479Z,98.40
2019-02-21T17:01:47.040Z,98.70
2019-02-21T17:04:15.510Z,98.90
2019-02-21T17:06:44.860Z,99.20
2019-02-21T17:09:13.281Z,99.40
2019-02-21T17:11:41.819Z,99.50
2019-02-21T17:14:10.277Z,99.40
2019-02-21T17:16:38.674Z,99.30
2019-02-21T17:19:07.037Z,99.40
2019-02-21T17:21:35.626Z,99.80
2019-02-21T17:24:04.009Z,99.90
2019-02-21T17:26:32.403Z,99.90
2019-02-21T17:29:01.501Z,99.90
2019-02-21T17:31:31.774Z,99.90
2019-02-21T17:34:00.361Z,99.90
2019-02-21T17:36:29.236Z,99.90
2019-02-21T17:38:57.729Z,99.90
2019-02-21T17:41:26.155Z,99.90
2019-02-21T17:43:54.624Z,99.90
2019-02-21T17:46:23.010Z,99.90
2019-02-21T17:48:51.516Z,99.90
2019-02-21T17:51:19.966Z,99.90
2019-02-21T17:53:48.559Z,99.90
2019-02-21T17:56:17.030Z,99.90
2019-02-21T17:58:46.014Z,99.90
2019-02-21T18:01:14.576Z,99.90
2019-02-21T18:03:43.057Z,99.90
2019-02-21T18:06:11.701Z,99.90
2019-02-21T18:08:40.167Z,99.90
2019-02-21T18:11:08.627Z,99.90
2019-02-21T18:13:37.123Z,99.90
2019-02-21T18:16:06.503Z,99.90
2019-02-21T18:18:35.299Z,99.90
2019-02-21T18:21:04.214Z,99.90
2019-02-21T18:23:32.751Z,99.90
2019-02-21T18:26:16.911Z,99.90
2019-02-21T18:28:47.127Z,99.90
2019-02-21T18:31:15.529Z,99.90
2019-02-21T18:33:43.905Z,99.90
2019-02-21T18:36:12.299Z,99.90
2019-02-21T18:38:40.679Z,99.90
2019-02-21T18:41:09.181Z,99.90
2019-02-21T18:43:37.766Z,99.90
2019-02-21T18:46:06.385Z,99.90
2019-02-21T18:48:34.858Z,99.90
2019-02-21T18:51:03.931Z,99.90
2019-02-21T18:53:33.030Z,99.90
2019-02-21T18:56:01.556Z,99.90
2019-02-21T18:58:30.475Z,99.90
2019-02-21T19:01:00.723Z,99.90
2019-02-21T19:03:29.312Z,99.90
2019-02-21T19:05:58.866Z,99.90
2019-02-21T19:08:27.458Z,99.90
2019-02-21T19:10:55.956Z,99.90
2019-02-21T19:13:24.605Z,99.90
2019-02-21T19:15:53.706Z,99.90
2019-02-21T19:18:24.215Z,99.90
2019-02-21T19:20:52.419Z,99.90
2019-02-21T19:23:21.243Z,99.90
2019-02-21T19:25:50.264Z,99.90
2019-02-21T19:28:19.182Z,99.90
2019-02-21T19:30:58.758Z,99.90
2019-02-21T19:33:27.154Z,99.90
2019-02-21T19:35:55.597Z,99.90
2019-02-21T19:38:24.009Z,99.90
2019-02-21T19:40:52.702Z,99.90
2019-02-21T19:43:21.215Z,99.90
2019-02-21T19:45:49.608Z,99.90
2019-02-21T19:48:18.030Z,99.90
2019-02-21T19:50:46.635Z,99.90
2019-02-21T19:53:27.738Z,99.90
2019-02-21T19:55:57.931Z,99.90
2019-02-21T19:58:28.217Z,99.90
2019-02-21T20:00:57.406Z,99.90
2019-02-21T20:03:25.827Z,99.90
2019-02-21T20:05:54.852Z,99.90
2019-02-21T20:08:23.678Z,99.90
2019-02-21T20:10:52.156Z,99.90
2019-02-21T20:13:20.570Z,99.90
2019-02-21T20:15:49.308Z,99.90
2019-02-21T20:18:17.777Z,99.90
2019-02-21T20:20:48.462Z,99.90
2019-02-21T20:23:17.038Z,99.90
2019-02-21T20:25:46.772Z,99.90
2019-02-21T20:28:15.645Z,99.90
2019-02-21T20:30:44.052Z,99.90
2019-02-21T20:33:12.808Z,99.90
2019-02-21T20:35:41.227Z,99.90
2019-02-21T20:38:10.420Z,99.90
2019-02-21T20:40:39.530Z,99.90
2019-02-21T20:43:08.735Z,99.90
2019-02-21T20:45:38.226Z,99.90
2019-02-21T20:48:06.946Z,99.90
2019-02-21T20:50:35.443Z,99.90
2019-02-21T20:53:04.457Z,99.90
2019-02-21T20:55:43.045Z,99.90
2019-02-21T20:58:03.436Z,99.90
2019-02-21T21:00:34.137Z,99.90
2019-02-21T21:03:05.510Z,99.90
2019-02-21T21:05:35.315Z,99.90
2019-02-21T21:08:03.871Z,99.90
2019-02-21T21:10:32.272Z,99.90
2019-02-21T21:13:02.813Z,99.90
2019-02-21T21:15:31.528Z,99.90
2019-02-21T21:18:01.054Z,99.90
2019-02-21T21:20:29.597Z,99.90
2019-02-21T21:22:59.869Z,99.90
2019-02-21T21:25:29.058Z,99.90
2019-02-21T21:27:57.861Z,99.90
2019-02-21T21:30:26.604Z,99.90
2019-02-21T21:32:55.343Z,99.90
2019-02-21T21:35:24.248Z,99.90
2019-02-21T21:37:53.170Z,99.90
2019-02-21T21:40:21.556Z,99.90
2019-02-21T21:42:50.033Z,99.90
2019-02-21T21:45:20.231Z,99.90
2019-02-21T21:47:48.727Z,99.90
2019-02-21T21:50:17.446Z,99.90
2019-02-21T21:52:45.998Z,99.90
2019-02-21T21:55:14.568Z,99.90
2019-02-21T21:57:42.982Z,99.90
2019-02-21T22:00:18.182Z,99.90
2019-02-21T22:02:46.840Z,99.90
2019-02-21T22:05:15.348Z,99.90
2019-02-21T22:07:44.059Z,99.90
2019-02-21T22:10:17.609Z,99.90
2019-02-21T22:12:46.954Z,99.90
2019-02-21T22:15:16.055Z,99.90
2019-02-21T22:17:44.865Z,99.90
2019-02-21T22:20:13.275Z,99.90
2019-02-21T22:22:43.743Z,99.90
2019-02-21T22:25:12.793Z,99.90
2019-02-21T22:27:41.392Z,99.90
2019-02-21T22:30:12.731Z,99.90
2019-02-21T22:32:41.208Z,99.90
2019-02-21T22:35:11.115Z,99.90
2019-02-21T22:37:40.654Z,99.90
2019-02-21T22:40:17.569Z,99.90
2019-02-21T22:42:46.545Z,99.90
2019-02-21T22:45:15.140Z,99.90
2019-02-21T22:47:43.659Z,99.90
2019-02-21T22:50:13.581Z,99.90
2019-02-21T22:52:42.014Z,99.90
2019-02-21T22:55:12.334Z,99.90
2019-02-21T22:57:41.029Z,99.90
2019-02-21T23:00:59.933Z,99.90
2019-02-21T23:03:48.351Z,99.90
2019-02-21T23:06:55.758Z,99.90
2019-02-21T23:09:27.876Z,99.90
2019-02-21T23:11:56.098Z,99.90
2019-02-21T23:14:24.503Z,99.90
2019-02-21T23:16:53.098Z,99.90
2019-02-21T23:19:23.938Z,99.90
2019-02-21T23:21:51.930Z,99.90
2019-02-21T23:24:20.450Z,99.90
2019-02-21T23:26:48.853Z,99.90
2019-02-21T23:29:17.273Z,99.90
2019-02-21T23:31:46.157Z,99.90
2019-02-21T23:34:22.470Z,99.90
2019-02-21T23:36:51.058Z,99.90
2019-02-21T23:39:19.439Z,99.90
2019-02-21T23:41:47.850Z,99.90
2019-02-21T23:44:16.544Z,99.90
2019-02-21T23:46:45.388Z,99.90
2019-02-21T23:49:14.082Z,99.90
2019-02-21T23:51:44.384Z,99.90
2019-02-21T23:54:12.906Z,99.90
2019-02-21T23:56:41.296Z,99.90
2019-02-21T23:59:10.039Z,99.90
